EmailTwitter


Observations de surface / Royaume-Uni / EGLL (03772)

Régions: Québec | Canada | États-Unis | Europe | France | UK | Ailleurs
Station
Affichage
Infos & localisation pour EGLL (03772) | Aide pour décoder les METARs

Observations prises le 2020-02-22 à 06H50 UTC à LONDON/HEATHROW, UK (EGLL)

Etat du ciel: partiellement nuageux.

Température: 11.0 Celsius

Point de rosée: 7.0 Celsius

Humidité relative: 76%

Facteur vent: 8.

Vents: Sud-ouest à 31 km/h ou 17 noeuds.

Pression au niveau moyen de la mer: 101.60 kilopascals.

Visibilité horizontale: 6.21 milles terrestres ou 9.94 kilomètres.

Hauteur du plafond: 610 mètres ( 2000 pieds ).

Observation METAR:

EGLL 220650Z AUTO 24017KT 9999 BKN020 11/07 Q1016 NOSIG=